MMVA/VSA METAR and TAF weather

Enter ICAO airport designator
Station Type Date Time Source
MMVA METAR 2022/06/29 23:47 UTC NOAA

MMVA 292347Z 35007KT 7SM SCT020CB 31/25 A2998 RMK SLP151 57006 904 8/300


Station Type Date Time Source
MMVA Decoded METAR 2022/06/29 23:47 UTC NOAA

Villahermosa , Mexico (MMVA) 18-00N 092-49W
Jun 29, 2022 - 07:47 PM EDT / 2022.06.29 2347 UTC
Wind: from the N (350 degrees) at 8 MPH (7 KT):0
Visibility: 7 mile(s):0
Sky conditions: partly cloudy
Weather: Cumulonimbus clouds observed
Temperature: 87 F (31 C)
Heat index: 97.5 F (36.4 C):1
Dew Point: 77 F (25 C)
Relative Humidity: 70%
Pressure (altimeter): 29.98 in. Hg (1015 hPa)
Pressure tendency: 0.02 inches (0.6 hPa) lower than three hours ago
ob: MMVA 292347Z 35007KT 7SM SCT020CB 31/25 A2998 RMK SLP151 57006 904 8/300
cycle: 0

Station Type Date Time Source
MMVA TAF 2022/06/29 18:25 UTC NOAA

TAF MMVA 291718Z 2918/3018 07010KT P6SM SCT020 BKN250
TEMPO 2921/3001 5SM TSRA BKN015CB
FM300600 09010KT 5SM HZ SCT015
TEMPO 3012/3016 3SM BR BKN015

Example: see airport list